Saint-Raymond, Canada
Current Conditions -  °F | °C
As of 9:13 PM on Thursday 20 Nov 2014 (Local Time) from CYOY Reporting Station
Overcast Overcast  
Wind Chill: 17°   Ceiling: 2600
Heat Index: 23°   Visibility: 9mi
Dew Point: 14°   Wind: 5mph
Humidity: 68%   Direction: 230°SW
Pressure: 29.66"   Gusts: NA
Location:  46.88°N, 71.83°W
Report Text: CYOY 210213Z AUTO 23004KT 090V260 9SM OVC026 OVC063 OVC070 OVC087 M05/M10 A2966
Loading
Personal Weather Stations






























Interactive Weather Map New forecast layout! Learn more

10-Day Weather Forecast

Advertisements
Track Severe Weather on mobile